Time;durP1;ratioP1;P1;durP2;ratioP2;P2;SDS_P1;SDS_P2;PMS_P1;PMS_P2;Temp;Humidity;BMP_temperature;BMP_pressure;BME280_temperature;BME280_humidity;BME280_pressure;Samples;Min_cycle;Max_cycle;Signal;HPM_P1;HPM_P2
2023/04/08 00:01:04;;;;;;;31.80;21.13;;;;;;;8.30;100.00;148131.25;5093272;28;20188;-63
2023/04/08 00:03:31;;;;;;;22.33;17.87;;;;;;;8.47;100.00;148174.16;5093043;28;20196;-62
2023/04/08 00:06:02;;;;;;;23.70;18.70;;;;;;;8.41;100.00;148159.00;5093027;28;20189;-61
2023/04/08 00:08:28;;;;;;;19.33;17.43;;;;;;;8.37;100.00;148148.91;5093102;28;20299;-61
2023/04/08 00:10:55;;;;;;;18.57;16.67;;;;;;;8.43;100.00;148164.06;5092958;28;20188;-62
2023/04/08 00:13:25;;;;;;;18.80;16.93;;;;;;;8.45;100.00;148169.09;5093162;28;20188;-62
2023/04/08 00:15:51;;;;;;;23.40;18.13;;;;;;;8.46;100.00;148171.63;5092732;28;20188;-62
2023/04/08 00:18:18;;;;;;;22.60;17.97;;;;;;;8.45;100.00;148167.84;5093186;28;20198;-61
2023/04/08 00:20:45;;;;;;;19.80;17.17;;;;;;;8.35;100.00;148143.88;5092946;28;20187;-62
2023/04/08 00:23:13;;;;;;;19.07;16.93;;;;;;;8.16;100.00;148095.88;5092677;28;20226;-62
2023/04/08 00:25:40;;;;;;;18.30;16.50;;;;;;;8.23;100.00;148113.56;5092644;28;20635;-61
2023/04/08 00:28:07;;;;;;;18.83;17.13;;;;;;;8.10;100.00;148080.75;5092835;28;20688;-62
2023/04/08 00:30:35;;;;;;;18.53;16.73;;;;;;;8.12;100.00;148087.06;5092458;28;20184;-62
2023/04/08 00:33:01;;;;;;;19.77;17.73;;;;;;;8.15;100.00;148094.59;5092733;28;20184;-60
2023/04/08 00:35:30;;;;;;;21.00;17.90;;;;;;;8.18;100.00;148100.94;5092501;28;20184;-60
2023/04/08 00:37:59;;;;;;;21.20;18.03;;;;;;;8.19;100.00;148103.44;5092292;28;20188;-62
2023/04/08 00:40:28;;;;;;;21.87;18.97;;;;;;;8.14;100.00;148092.13;5092692;28;20536;-61
2023/04/08 00:42:57;;;;;;;20.63;18.47;;;;;;;8.07;100.00;148074.44;5092299;28;20194;-61
2023/04/08 00:45:23;;;;;;;21.43;19.10;;;;;;;7.80;100.00;148006.34;5092229;28;20192;-62
2023/04/08 00:47:51;;;;;;;20.77;18.53;;;;;;;7.82;100.00;148012.63;5092420;28;20496;-62
2023/04/08 00:50:19;;;;;;;22.30;18.40;;;;;;;7.90;100.00;148030.28;5092545;28;20247;-62
2023/04/08 00:52:45;;;;;;;23.37;19.70;;;;;;;7.96;100.00;148045.44;5091999;28;20214;-61
2023/04/08 00:55:12;;;;;;;21.57;19.27;;;;;;;8.05;100.00;148068.13;5092045;28;20192;-61
2023/04/08 00:57:41;;;;;;;22.17;18.73;;;;;;;7.88;100.00;148026.50;5091322;28;20619;-62
2023/04/08 01:00:09;;;;;;;24.47;19.87;;;;;;;7.81;100.00;148008.81;5092072;28;20176;-62
2023/04/08 01:02:43;;;;;;;22.00;19.77;;;;;;;7.93;100.00;148037.88;5092037;28;20195;-61
2023/04/08 01:05:15;;;;;;;23.43;18.93;;;;;;;7.78;100.00;148002.53;5091959;28;20219;-62
2023/04/08 01:07:46;;;;;;;22.57;16.83;;;;;;;7.64;100.00;147967.22;5092232;28;20184;-61
2023/04/08 01:10:17;;;;;;;26.07;17.57;;;;;;;7.63;100.00;147964.72;5091817;28;20208;-61
2023/04/08 01:12:51;;;;;;;26.53;17.87;;;;;;;7.68;100.00;147977.31;5091900;28;20231;-61
2023/04/08 01:15:19;;;;;;;19.93;17.47;;;;;;;7.33;100.00;147889.06;5092095;28;20530;-62
2023/04/08 01:17:47;;;;;;;26.57;17.00;;;;;;;7.59;100.00;147954.66;5092069;28;20635;-63
2023/04/08 01:20:16;;;;;;;24.83;17.77;;;;;;;7.53;100.00;146785.47;5091832;28;20184;-61
2023/04/08 01:22:58;;;;;;;29.00;18.23;;;;;;;7.39;100.00;140795.81;5091719;28;20187;-61
2023/04/08 01:25:31;;;;;;;19.10;17.07;;;;;;;7.60;100.00;144769.25;5091795;28;20184;-62
2023/04/08 01:28:01;;;;;;;19.70;17.60;;;;;;;7.45;100.00;147919.31;5091734;28;20660;-62
2023/04/08 01:30:30;;;;;;;21.37;18.97;;;;;;;7.57;100.00;147948.31;5091960;28;20176;-62
2023/04/08 01:32:58;;;;;;;21.70;19.20;;;;;;;7.39;100.00;147904.19;5091996;28;20252;-61
2023/04/08 01:35:25;;;;;;;25.07;18.70;;;;;;;7.50;100.00;147931.94;5091437;28;20190;-61
2023/04/08 01:37:54;;;;;;;21.77;19.03;;;;;;;7.48;100.00;147925.59;5091545;28;20191;-61
2023/04/08 01:40:21;;;;;;;19.97;17.83;;;;;;;7.50;100.00;147930.69;5091834;28;20184;-61
2023/04/08 01:42:49;;;;;;;21.23;17.60;;;;;;;7.35;100.00;140944.09;5091537;28;20195;-61
2023/04/08 01:45:18;;;;;;;21.70;18.53;;;;;;;7.32;100.00;130673.25;5091833;28;20609;-61
2023/04/08 01:47:47;;;;;;;18.83;16.77;;;;;;;7.28;100.00;134996.38;5091719;28;20192;-62
2023/04/08 01:50:15;;;;;;;28.07;19.20;;;;;;;7.33;100.00;142547.91;5091307;28;20203;-62
2023/04/08 01:52:44;;;;;;;23.43;19.27;;;;;;;7.48;100.00;147926.88;5091762;28;20191;-61
2023/04/08 01:55:12;;;;;;;25.47;20.30;;;;;;;7.50;100.00;147931.94;5091402;28;20184;-62
2023/04/08 01:57:40;;;;;;;23.73;20.60;;;;;;;7.64;100.00;147967.22;5091487;28;20645;-62
2023/04/08 02:00:10;;;;;;;29.97;21.13;;;;;;;7.70;100.00;147982.38;5091366;28;20212;-62
2023/04/08 02:02:41;;;;;;;29.07;21.93;;;;;;;7.79;100.00;148005.06;5091488;28;20211;-62
2023/04/08 02:05:08;;;;;;;30.70;22.97;;;;;;;7.85;100.00;148017.69;5091682;28;20188;-61
2023/04/08 02:07:35;;;;;;;28.43;23.03;;;;;;;7.91;100.00;148032.81;5091269;28;20649;-62
2023/04/08 02:10:02;;;;;;;33.27;23.20;;;;;;;7.75;100.00;147995.00;5094782;28;20627;-62
2023/04/08 02:12:29;;;;;;;37.07;22.90;;;;;;;7.99;100.00;148052.97;5095073;28;20235;-61
2023/04/08 02:14:57;;;;;;;33.37;24.87;;;;;;;7.96;100.00;148045.44;5095246;28;20187;-62
2023/04/08 02:17:31;;;;;;;35.40;25.30;;;;;;;7.95;100.00;148044.16;5095148;28;20195;-63
2023/04/08 02:20:06;;;;;;;35.97;25.10;;;;;;;7.88;100.00;148025.25;5095310;28;20634;-62
2023/04/08 02:22:39;;;;;;;36.37;26.13;;;;;;;7.75;100.00;147995.00;5095154;28;20233;-62
2023/04/08 02:25:09;;;;;;;44.00;26.07;;;;;;;7.80;100.00;148007.59;5094950;28;20260;-61
2023/04/08 02:27:37;;;;;;;51.50;28.20;;;;;;;7.86;100.00;148020.19;5095394;28;20619;-61
2023/04/08 02:30:06;;;;;;;41.60;27.13;;;;;;;7.89;100.00;147486.69;5094615;28;20216;-61
2023/04/08 02:32:34;;;;;;;45.40;27.97;;;;;;;7.80;100.00;138187.88;5094794;28;20188;-63
2023/04/08 02:35:03;;;;;;;35.17;22.90;;;;;;;7.53;100.00;137732.31;5094834;28;20229;-61
2023/04/08 02:37:30;;;;;;;36.77;22.77;;;;;;;7.23;100.00;142458.88;5094989;28;20559;-62
2023/04/08 02:39:58;;;;;;;36.67;21.27;;;;;;;6.73;100.00;112771.66;5094633;28;20192;-62
2023/04/08 02:42:25;;;;;;;32.43;21.87;;;;;;;6.28;100.00;93058.72;5094706;28;20195;-62
2023/04/08 02:44:51;;;;;;;43.03;24.87;;;;;;;6.51;100.00;82667.31;5094724;28;20215;-62
2023/04/08 02:47:18;;;;;;;38.77;24.80;;;;;;;6.58;100.00;80401.09;5094752;28;20172;-63
2023/04/08 02:49:45;;;;;;;45.63;27.53;;;;;;;6.24;100.00;79704.91;5095354;28;20551;-63
2023/04/08 02:52:13;;;;;;;46.10;27.83;;;;;;;6.58;100.00;76826.16;5095455;28;20675;-61
2023/04/08 02:54:40;;;;;;;51.97;27.80;;;;;;;6.64;100.00;72937.41;5094461;28;20192;-62
2023/04/08 02:57:07;;;;;;;43.97;26.97;;;;;;;6.67;100.00;74564.72;5094962;28;20539;-61
2023/04/08 02:59:36;;;;;;;43.37;26.63;;;;;;;6.83;100.00;75883.84;5094691;28;20249;-62
2023/04/08 03:02:03;;;;;;;41.77;28.30;;;;;;;6.81;100.00;78806.84;5094719;28;20603;-62
2023/04/08 03:04:30;;;;;;;42.53;25.93;;;;;;;6.81;100.00;85314.91;5094413;28;20184;-62
2023/04/08 03:06:57;;;;;;;43.93;26.60;;;;;;;6.15;100.00;89125.94;5094644;28;20578;-63
2023/04/08 03:09:25;;;;;;;51.87;27.93;;;;;;;5.97;100.00;77720.50;5094383;28;20208;-62
2023/04/08 03:11:53;;;;;;;46.77;27.33;;;;;;;6.13;100.00;75144.19;5094035;28;20252;-62
2023/04/08 03:14:21;;;;;;;35.10;25.03;;;;;;;5.91;100.00;74792.69;5094013;28;20219;-63
2023/04/08 03:16:48;;;;;;;39.60;25.77;;;;;;;5.41;100.00;74080.31;5094378;28;20607;-62
2023/04/08 03:19:15;;;;;;;44.73;25.90;;;;;;;5.58;100.00;68920.69;5094417;28;20196;-61
2023/04/08 03:21:41;;;;;;;51.33;27.93;;;;;;;5.32;100.00;60492.03;5093275;28;20188;-63
2023/04/08 03:24:08;;;;;;;52.43;27.77;;;;;;;5.56;100.00;56646.53;5093805;28;20184;-61
2023/04/08 03:26:37;;;;;;;48.77;27.23;;;;;;;5.67;100.00;58592.53;5094206;28;20195;-62
2023/04/08 03:29:04;;;;;;;50.07;29.00;;;;;;;5.60;100.00;64396.81;5094187;28;20250;-63
2023/04/08 03:31:30;;;;;;;55.87;28.60;;;;;;;5.72;100.00;67967.22;5093941;28;20179;-61
2023/04/08 03:33:57;;;;;;;40.50;25.53;;;;;;;5.73;100.00;73148.94;5093719;28;20188;-62
2023/04/08 03:36:25;;;;;;;51.43;28.93;;;;;;;5.93;100.00;77065.41;5093540;28;20188;-61
2023/04/08 03:38:52;;;;;;;38.67;27.40;;;;;;;6.10;100.00;81310.31;5093786;28;20613;-61
2023/04/08 03:41:19;;;;;;;53.50;28.73;;;;;;;6.20;100.00;85227.09;5093522;28;20195;-61
2023/04/08 03:43:48;;;;;;;52.87;28.23;;;;;;;5.78;100.00;102117.75;5093516;28;20188;-62
2023/04/08 03:46:15;;;;;;;63.53;27.50;;;;;;;5.51;100.00;102723.91;5093458;28;20192;-62
2023/04/08 03:48:41;;;;;;;48.93;26.80;;;;;;;5.41;100.00;92920.81;5092487;28;20188;-61
2023/04/08 03:51:08;;;;;;;67.33;27.50;;;;;;;5.33;100.00;83151.41;5093390;28;20200;-61
2023/04/08 03:53:35;;;;;;;52.13;26.37;;;;;;;5.39;100.00;79914.25;5093232;28;20184;-62
2023/04/08 03:56:03;;;;;;;63.43;27.83;;;;;;;5.63;100.00;80919.88;5093448;28;20191;-62
2023/04/08 03:58:30;;;;;;;55.60;26.20;;;;;;;5.70;100.00;86130.22;5093226;28;20238;-63
2023/04/08 04:00:59;;;;;;;52.23;26.73;;;;;;;5.69;100.00;92313.72;5093239;28;20176;-63
2023/04/08 04:03:26;;;;;;;43.17;25.13;;;;;;;5.46;100.00;92929.56;5090918;28;20279;-61
2023/04/08 04:05:53;;;;;;;51.80;26.83;;;;;;;5.74;100.00;95581.63;5091612;28;20189;-63
2023/04/08 04:08:20;;;;;;;47.27;24.63;;;;;;;5.73;100.00;105378.09;5091560;28;20184;-62
2023/04/08 04:10:47;;;;;;;46.90;25.63;;;;;;;5.83;100.00;116535.94;5091242;28;20207;-62
2023/04/08 04:13:13;;;;;;;39.43;25.70;;;;;;;6.21;100.00;141383.03;5091860;28;20188;-62
2023/04/08 04:15:41;;;;;;;41.57;23.60;;;;;;;6.43;100.00;147666.00;5092802;28;20562;-61
2023/04/08 04:18:09;;;;;;;43.10;23.53;;;;;;;6.75;100.00;147744.09;5091827;28;20211;-62
2023/04/08 04:20:37;;;;;;;33.60;21.27;;;;;;;7.12;100.00;147836.13;5092984;28;20210;-62
2023/04/08 04:23:03;;;;;;;43.40;22.93;;;;;;;7.32;100.00;147886.53;5092738;28;20188;-61
2023/04/08 04:25:30;;;;;;;53.90;22.17;;;;;;;7.77;100.00;147998.75;5092665;28;20187;-61
2023/04/08 04:27:57;;;;;;;46.37;22.97;;;;;;;8.17;100.00;148098.41;5092563;28;20191;-61
2023/04/08 04:30:24;;;;;;;37.03;22.27;;;;;;;8.51;100.00;148184.25;5092722;28;20208;-61
2023/04/08 04:32:51;;;;;;;38.10;23.43;;;;;;;8.78;100.00;148251.16;5091714;28;20184;-61
2023/04/08 04:35:19;;;;;;;42.90;25.47;;;;;;;9.06;100.00;148321.84;5092271;28;20245;-63
2023/04/08 04:37:49;;;;;;;45.67;28.50;;;;;;;9.24;100.00;148364.78;5092308;28;20271;-62
2023/04/08 04:40:15;;;;;;;50.97;33.30;;;;;;;9.23;100.00;148363.50;5092724;28;20275;-62
2023/04/08 04:42:42;;;;;;;59.03;33.77;;;;;;;9.18;100.00;148352.13;5092279;28;20176;-61
2023/04/08 04:45:10;;;;;;;65.37;34.87;;;;;;;8.98;100.00;148300.38;5092270;28;20188;-62
2023/04/08 04:47:37;;;;;;;60.40;34.37;;;;;;;9.20;100.00;148355.94;5092480;28;20195;-62
2023/04/08 04:50:05;;;;;;;57.30;32.13;;;;;;;9.39;100.00;148402.63;5092430;28;20594;-63
2023/04/08 04:52:33;;;;;;;70.70;33.60;;;;;;;9.69;100.00;148477.16;5092194;28;20187;-62
2023/04/08 04:55:00;;;;;;;73.53;32.93;;;;;;;9.78;100.00;148499.88;5092469;28;20662;-61
2023/04/08 04:57:26;;;;;;;52.60;29.93;;;;;;;9.93;100.00;148539.03;5092297;28;20180;-62
2023/04/08 04:59:56;;;;;;;55.20;30.60;;;;;;;10.06;100.00;148571.88;5092315;28;20180;-63
2023/04/08 05:02:23;;;;;;;86.30;33.43;;;;;;;10.24;100.00;148616.19;5092350;28;20256;-61
2023/04/08 05:04:52;;;;;;;55.07;30.23;;;;;;;10.35;100.00;148642.75;5092178;28;20188;-62
2023/04/08 05:07:19;;;;;;;47.60;28.37;;;;;;;10.54;100.00;148692.00;5091940;28;20188;-63
2023/04/08 05:09:47;;;;;;;47.57;27.27;;;;;;;10.45;100.00;148669.25;5092087;28;20602;-62
2023/04/08 05:12:14;;;;;;;44.93;28.30;;;;;;;10.61;100.00;148707.19;5091715;28;20231;-62
2023/04/08 05:14:43;;;;;;;44.90;27.83;;;;;;;10.92;100.00;148786.81;5092219;28;20567;-63
2023/04/08 05:17:10;;;;;;;43.57;28.07;;;;;;;10.68;100.00;148726.16;5092050;28;20187;-62
2023/04/08 05:19:37;;;;;;;43.23;28.97;;;;;;;10.40;100.00;148655.34;5091816;28;20180;-62
2023/04/08 05:22:04;;;;;;;44.67;30.20;;;;;;;11.00;100.00;148805.78;5091755;28;20188;-62
2023/04/08 05:24:31;;;;;;;38.80;28.70;;;;;;;11.69;100.00;148979.06;5091707;28;20184;-61
2023/04/08 05:27:00;;;;;;;40.33;29.40;;;;;;;12.35;100.00;149143.63;5090423;28;20559;-62
2023/04/08 05:29:27;;;;;;;38.80;27.60;;;;;;;12.35;100.00;149144.88;5091862;28;20570;-62
2023/04/08 05:31:55;;;;;;;39.03;28.50;;;;;;;12.34;100.00;149141.13;5091887;28;20199;-62
2023/04/08 05:34:22;;;;;;;42.97;27.13;;;;;;;12.83;100.00;149263.91;5091860;28;20558;-62
2023/04/08 05:36:50;;;;;;;37.37;27.93;;;;;;;12.71;100.00;149233.53;5091816;28;20631;-62
2023/04/08 05:39:17;;;;;;;38.33;28.77;;;;;;;13.45;100.00;149418.50;5091869;28;20180;-62
2023/04/08 05:41:44;;;;;;;42.13;27.70;;;;;;;13.73;100.00;149490.72;5091969;28;20634;-62
2023/04/08 05:44:13;;;;;;;50.10;26.80;;;;;;;13.96;100.00;149547.72;5093523;28;20223;-62
2023/04/08 05:46:40;;;;;;;34.17;24.80;;;;;;;13.61;100.00;149459.03;5096142;28;20252;-62
2023/04/08 05:49:07;;;;;;;32.60;24.43;;;;;;;13.40;100.00;149405.81;5095944;28;20195;-62
2023/04/08 05:51:34;;;;;;;43.53;25.47;;;;;;;12.46;100.00;149170.22;5095848;28;20563;-62
2023/04/08 05:54:00;;;;;;;40.13;24.57;;;;;;;12.69;100.00;149229.72;5095437;28;20188;-62
2023/04/08 05:56:27;;;;;;;33.60;25.07;;;;;;;13.21;100.00;149360.22;5095455;28;20183;-61
2023/04/08 05:58:54;;;;;;;36.77;24.23;;;;;;;13.63;100.00;149464.09;5095475;28;20269;-62
2023/04/08 06:01:24;;;;;;;29.23;22.67;;;;;;;13.72;100.00;149488.16;5095425;28;20184;-62
2023/04/08 06:03:51;;;;;;;29.43;23.07;;;;;;;13.10;100.00;149332.38;5095228;28;20233;-62
2023/04/08 06:06:18;;;;;;;30.50;22.10;;;;;;;12.20;100.00;149106.94;5095548;28;20261;-62
2023/04/08 06:08:45;;;;;;;25.80;19.83;;;;;;;12.31;100.00;149133.50;5095438;28;20199;-63
2023/04/08 06:11:12;;;;;;;25.80;21.30;;;;;;;12.20;100.00;149105.66;5095063;28;20239;-61
2023/04/08 06:13:41;;;;;;;27.23;21.17;;;;;;;12.52;100.00;149185.44;5095461;28;20554;-63
2023/04/08 06:16:11;;;;;;;27.73;21.73;;;;;;;12.18;100.00;149101.84;5095407;28;20636;-63
2023/04/08 06:18:43;;;;;;;40.73;22.60;;;;;;;12.95;100.00;149294.28;5095289;28;20195;-62
2023/04/08 06:21:10;;;;;;;20.47;18.17;;;;;;;13.02;100.00;149310.78;5094955;28;20176;-63
2023/04/08 06:23:38;;;;;;;28.73;19.97;;;;;;;12.93;100.00;149287.97;5095311;28;20593;-62
2023/04/08 06:26:05;;;;;;;15.70;14.37;;;;;;;12.84;100.00;149266.44;5094925;28;20195;-62
2023/04/08 06:28:33;;;;;;;15.80;14.37;;;;;;;12.77;100.00;149248.72;5095182;28;20188;-63
2023/04/08 06:30:59;;;;;;;13.60;12.50;;;;;;;12.79;100.00;149253.78;5094810;28;20222;-63
2023/04/08 06:33:26;;;;;;;13.93;13.03;;;;;;;12.72;100.00;149237.34;5095144;28;20196;-62
2023/04/08 06:36:03;;;;;;;13.57;12.37;;;;;;;13.18;100.00;149351.34;5095056;28;20554;-62
2023/04/08 06:38:30;;;;;;;12.87;11.77;;;;;;;13.20;100.00;149357.66;5095028;28;20187;-62
2023/04/08 06:41:01;;;;;;;13.47;12.13;;;;;;;13.16;100.00;149346.25;5094618;28;20241;-61
2023/04/08 06:43:28;;;;;;;12.70;11.67;;;;;;;13.00;100.00;149306.97;5094919;28;20188;-61
2023/04/08 06:45:55;;;;;;;15.37;11.03;;;;;;;13.37;100.00;149399.47;5094842;28;20210;-62
2023/04/08 06:48:22;;;;;;;11.03;10.03;;;;;;;13.41;100.00;149409.59;5094842;28;20207;-62
2023/04/08 06:50:49;;;;;;;10.93;10.23;;;;;;;13.59;100.00;149453.94;5094532;28;20298;-61
2023/04/08 06:53:17;;;;;;;13.33;11.97;;;;;;;14.37;100.00;149649.19;5094805;28;20582;-61
2023/04/08 06:55:44;;;;;;;11.10;10.50;;;;;;;15.32;100.00;149887.66;5093169;28;20183;-62
2023/04/08 06:58:11;;;;;;;10.67;9.97;;;;;;;15.36;100.00;149897.78;5094298;28;20631;-61
2023/04/08 07:00:38;;;;;;;11.27;10.53;;;;;;;15.29;100.00;149881.28;5094224;28;20184;-62
2023/04/08 07:03:05;;;;;;;12.23;10.97;;;;;;;14.82;100.00;149763.31;5094447;28;20596;-63
2023/04/08 07:05:32;;;;;;;12.00;11.17;;;;;;;14.86;100.00;149773.44;5094438;28;20184;-63
2023/04/08 07:07:59;;;;;;;11.90;10.90;;;;;;;14.29;100.00;149628.88;5094335;28;20662;-62
2023/04/08 07:10:27;;;;;;;11.33;10.40;;;;;;;14.01;100.00;149560.41;5094372;28;20227;-62
2023/04/08 07:12:54;;;;;;;12.07;11.20;;;;;;;14.01;100.00;149559.13;5093841;28;20234;-62
2023/04/08 07:15:21;;;;;;;11.17;10.20;;;;;;;13.77;100.00;149498.31;5094186;28;20566;-62
2023/04/08 07:17:48;;;;;;;12.00;11.30;;;;;;;12.96;100.00;149296.84;5094124;28;20203;-61
2023/04/08 07:20:15;;;;;;;11.67;10.87;;;;;;;12.71;100.00;149233.53;5093923;28;20184;-62
2023/04/08 07:22:42;;;;;;;10.80;10.10;;;;;;;12.77;100.00;149248.72;5093802;28;20326;-62
2023/04/08 07:25:09;;;;;;;10.90;10.10;;;;;;;12.87;100.00;149274.03;5093698;28;20180;-61
2023/04/08 07:27:37;;;;;;;12.00;9.73;;;;;;;12.99;100.00;149304.41;5093881;28;20199;-61
2023/04/08 07:30:06;;;;;;;10.97;9.93;;;;;;;13.16;100.00;149347.53;5093997;28;20540;-62
2023/04/08 07:32:33;;;;;;;11.30;10.60;;;;;;;12.59;100.00;149204.41;5093901;28;20215;-61
2023/04/08 07:35:00;;;;;;;10.07;9.47;;;;;;;12.76;100.00;149246.19;5093585;28;20196;-61
2023/04/08 07:37:27;;;;;;;11.23;10.40;;;;;;;12.75;100.00;149244.91;5093818;28;20642;-61
2023/04/08 07:39:56;;;;;;;10.67;9.97;;;;;;;12.50;100.00;149180.34;5093483;28;20199;-62
2023/04/08 07:42:23;;;;;;;9.93;9.43;;;;;;;12.61;100.00;149208.19;5093566;28;20200;-61
2023/04/08 07:44:51;;;;;;;10.57;9.93;;;;;;;12.61;100.00;149208.19;5093355;28;20188;-62
2023/04/08 07:47:18;;;;;;;10.43;9.83;;;;;;;12.43;100.00;149162.63;5093584;28;20227;-62
2023/04/08 07:49:47;;;;;;;10.00;9.40;;;;;;;12.33;100.00;149139.84;5093231;28;20227;-61
2023/04/08 07:52:14;;;;;;;10.63;9.90;;;;;;;12.42;100.00;149161.38;5093286;28;20204;-62
2023/04/08 07:54:41;;;;;;;10.57;9.40;;;;;;;12.25;100.00;149118.31;5093224;28;20184;-63
2023/04/08 07:57:08;;;;;;;9.93;9.27;;;;;;;12.10;100.00;149080.34;5093346;28;20293;-62
2023/04/08 07:59:34;;;;;;;10.97;10.00;;;;;;;12.35;100.00;149144.88;5093114;28;20184;-62
2023/04/08 08:02:03;;;;;;;10.77;9.93;;;;;;;12.40;100.00;149155.00;5093446;28;20635;-62
2023/04/08 08:04:30;;;;;;;10.43;9.63;;;;;;;12.43;100.00;149162.63;5093004;28;20180;-61
2023/04/08 08:06:57;;;;;;;12.60;11.57;;;;;;;12.44;100.00;149166.41;5093269;28;20555;-62
2023/04/08 08:09:24;;;;;;;11.77;10.87;;;;;;;12.58;100.00;149201.88;5092856;28;20192;-62
2023/04/08 08:11:51;;;;;;;10.93;9.97;;;;;;;12.88;100.00;149276.56;5092709;28;20234;-61
2023/04/08 08:14:17;;;;;;;8.60;8.10;;;;;;;12.47;100.00;149172.75;5093197;28;20188;-61
2023/04/08 08:16:44;;;;;;;10.33;9.73;;;;;;;12.78;100.00;149251.22;5093075;28;20188;-61
2023/04/08 08:19:13;;;;;;;9.07;8.50;;;;;;;12.63;100.00;149213.25;5093158;28;20199;-61
2023/04/08 08:21:40;;;;;;;9.57;8.97;;;;;;;12.59;100.00;149203.16;5092987;28;20192;-61
2023/04/08 08:24:07;;;;;;;10.30;9.57;;;;;;;12.52;100.00;149185.44;5092912;28;20191;-61
2023/04/08 08:26:35;;;;;;;10.40;9.80;;;;;;;12.28;100.00;149127.19;5092727;28;20184;-62
2023/04/08 08:29:02;;;;;;;10.60;9.57;;;;;;;12.41;100.00;149157.56;5092608;28;20219;-61
2023/04/08 08:31:29;;;;;;;9.33;8.60;;;;;;;12.38;100.00;149149.97;5092328;28;20227;-62
2023/04/08 08:33:56;;;;;;;10.37;9.57;;;;;;;12.54;100.00;149190.47;5092499;28;20184;-62
2023/04/08 08:36:26;;;;;;;9.30;8.90;;;;;;;12.45;100.00;149168.94;5092880;28;20192;-62
2023/04/08 08:38:53;;;;;;;11.20;10.30;;;;;;;12.42;100.00;149161.38;5092482;28;20223;-62
2023/04/08 08:41:20;;;;;;;11.57;10.80;;;;;;;12.13;100.00;149087.97;5092498;28;20188;-61
2023/04/08 08:43:47;;;;;;;9.77;8.90;;;;;;;12.39;100.00;149152.50;5092691;28;20291;-63
2023/04/08 08:46:17;;;;;;;11.03;10.10;;;;;;;12.33;100.00;149139.84;5092436;28;20187;-62
2023/04/08 08:48:47;;;;;;;12.10;11.30;;;;;;;12.24;100.00;149115.78;5092139;28;20229;-60
2023/04/08 08:51:14;;;;;;;12.17;11.00;;;;;;;12.44;100.00;149165.13;5092160;28;20250;-62
2023/04/08 08:53:44;;;;;;;10.37;9.73;;;;;;;12.03;100.00;149062.63;5092075;28;20194;-62
2023/04/08 08:56:11;;;;;;;10.73;10.13;;;;;;;12.27;100.00;149124.63;5092323;28;20631;-61
2023/04/08 08:58:39;;;;;;;10.00;9.40;;;;;;;12.10;100.00;149081.59;5092426;28;20199;-62
2023/04/08 09:01:30;;;;;;;9.90;9.00;;;;;;;12.04;100.00;149066.44;5091972;28;20238;-61
2023/04/08 09:04:11;;;;;;;9.80;9.20;;;;;;;12.12;100.00;149086.69;5092462;28;20625;-61
2023/04/08 09:06:38;;;;;;;11.77;11.00;;;;;;;11.96;100.00;149046.19;5092227;28;20606;-61
2023/04/08 09:09:09;;;;;;;11.57;10.43;;;;;;;12.01;100.00;149058.81;5091825;28;20267;-62
2023/04/08 09:11:36;;;;;;;11.03;10.33;;;;;;;11.95;100.00;149042.38;5091985;28;20314;-62
2023/04/08 09:14:05;;;;;;;9.80;9.20;;;;;;;11.50;100.00;148929.75;5091797;28;20238;-61
2023/04/08 09:16:32;;;;;;;10.97;10.27;;;;;;;11.74;100.00;148991.78;5092139;28;20261;-62
2023/04/08 09:19:09;;;;;;;10.77;9.70;;;;;;;11.97;100.00;149048.69;5091490;28;20196;-62
2023/04/08 09:21:36;;;;;;;11.53;10.47;;;;;;;12.01;100.00;149058.81;5092095;28;20615;-61
2023/04/08 09:24:03;;;;;;;11.00;10.30;;;;;;;11.80;100.00;149005.66;5091984;28;20188;-62
2023/04/08 09:26:31;;;;;;;11.13;10.43;;;;;;;12.15;100.00;149094.25;5092074;28;20180;-63
2023/04/08 09:29:00;;;;;;;11.90;11.20;;;;;;;11.88;100.00;149025.97;5091872;28;20192;-62
2023/04/08 09:31:28;;;;;;;10.77;9.97;;;;;;;12.18;100.00;149100.56;5091561;28;20239;-62
2023/04/08 09:33:56;;;;;;;9.77;9.27;;;;;;;12.39;100.00;149152.50;5091918;28;20207;-62
2023/04/08 09:36:23;;;;;;;10.00;9.30;;;;;;;12.55;100.00;149194.28;5091889;28;20183;-61
2023/04/08 09:38:50;;;;;;;10.07;9.37;;;;;;;12.36;100.00;149147.44;5091788;28;20488;-62
2023/04/08 09:41:19;;;;;;;9.97;9.53;;;;;;;12.59;100.00;149203.16;5091932;28;20180;-62
2023/04/08 09:43:50;;;;;;;9.63;9.13;;;;;;;12.96;100.00;149296.84;5091786;28;20184;-62
2023/04/08 09:46:19;;;;;;;9.00;8.50;;;;;;;12.92;100.00;149286.72;5091775;28;20188;-62
2023/04/08 09:49:01;;;;;;;9.37;8.80;;;;;;;13.03;100.00;149314.53;5091514;28;20180;-62
2023/04/08 09:51:33;;;;;;;10.40;9.60;;;;;;;13.23;100.00;149365.28;5091277;28;20218;-62
2023/04/08 09:54:03;;;;;;;9.83;9.13;;;;;;;13.21;100.00;149360.22;5091623;28;20184;-61
2023/04/08 09:56:36;;;;;;;9.37;8.80;;;;;;;12.87;100.00;149274.03;5091747;28;20279;-61
2023/04/08 09:59:11;;;;;;;9.37;8.83;;;;;;;12.66;100.00;149222.13;5091814;28;20562;-62
2023/04/08 10:01:40;;;;;;;8.90;8.40;;;;;;;12.50;100.00;149180.34;5091301;28;20237;-62
2023/04/08 10:04:12;;;;;;;10.00;9.20;;;;;;;12.60;100.00;149206.91;5091641;28;20591;-61
2023/04/08 10:06:41;;;;;;;9.60;9.07;;;;;;;12.52;100.00;149185.44;5091226;28;20184;-60
2023/04/08 10:09:09;;;;;;;9.10;8.53;;;;;;;12.51;100.00;149182.88;5091615;28;20196;-61
2023/04/08 10:11:36;;;;;;;8.40;7.67;;;;;;;12.84;100.00;149266.44;5091005;28;20227;-61
2023/04/08 10:14:06;;;;;;;9.00;8.40;;;;;;;13.01;100.00;149309.50;5090146;28;20563;-62
2023/04/08 10:16:33;;;;;;;8.53;8.10;;;;;;;12.96;100.00;149295.56;5091489;28;20565;-62
2023/04/08 10:19:00;;;;;;;8.03;7.23;;;;;;;13.09;100.00;149329.78;5091883;28;20200;-62
2023/04/08 10:21:38;;;;;;;8.37;7.80;;;;;;;13.04;100.00;149315.81;5091483;28;20234;-62
2023/04/08 10:24:09;;;;;;;7.57;7.07;;;;;;;13.01;100.00;149309.50;5091555;28;20655;-61
2023/04/08 10:26:39;;;;;;;7.10;6.77;;;;;;;12.90;100.00;149281.63;5091388;28;20192;-62
2023/04/08 10:29:33;;;;;;;7.00;6.70;;;;;;;12.81;100.00;149260.09;5091946;28;20554;-62
2023/04/08 10:32:01;;;;;;;8.30;7.70;;;;;;;12.72;100.00;149236.06;5095272;28;20551;-62
2023/04/08 10:34:28;;;;;;;8.13;7.77;;;;;;;12.93;100.00;149289.25;5094970;28;20196;-62
2023/04/08 10:36:57;;;;;;;10.27;8.00;;;;;;;13.11;100.00;149333.63;5095222;28;20212;-62
2023/04/08 10:39:26;;;;;;;8.20;7.60;;;;;;;13.79;100.00;149503.41;5094931;28;20180;-62
2023/04/08 10:41:52;;;;;;;7.20;6.77;;;;;;;14.21;100.00;149608.59;5094947;28;20279;-62
2023/04/08 10:44:20;;;;;;;8.13;7.73;;;;;;;14.28;100.00;149627.59;5094470;28;20264;-63
2023/04/08 10:46:50;;;;;;;8.07;7.27;;;;;;;14.27;100.00;149623.78;5094817;28;20266;-62
2023/04/08 10:49:19;;;;;;;7.33;6.93;;;;;;;14.34;100.00;149641.56;5094588;28;20195;-62
2023/04/08 10:51:46;;;;;;;6.37;5.90;;;;;;;14.52;100.00;149687.22;5094848;28;20208;-61
2023/04/08 10:54:15;;;;;;;7.47;7.07;;;;;;;14.64;100.00;149718.91;5095074;28;20683;-62
2023/04/08 10:56:47;;;;;;;8.17;7.50;;;;;;;14.99;100.00;149805.16;5094501;28;20188;-61
2023/04/08 10:59:16;;;;;;;7.30;7.00;;;;;;;14.95;100.00;149796.28;5094767;28;20210;-62
2023/04/08 11:01:45;;;;;;;7.70;7.40;;;;;;;14.90;100.00;149782.31;5094483;28;20184;-65
2023/04/08 11:04:14;;;;;;;6.43;6.10;;;;;;;14.44;100.00;149666.94;5094761;28;20607;-62
2023/04/08 11:06:43;;;;;;;7.37;6.67;;;;;;;14.03;100.00;149564.22;5094191;28;20190;-62
2023/04/08 11:09:10;;;;;;;7.67;7.20;;;;;;;13.49;100.00;149429.91;5094467;28;20602;-61
2023/04/08 11:11:37;;;;;;;6.93;6.43;;;;;;;13.11;100.00;149334.84;5094028;28;20281;-62
2023/04/08 11:14:05;;;;;;;8.47;7.97;;;;;;;12.70;100.00;149230.97;5093532;28;20196;-62